Time;durP1;ratioP1;P1;durP2;ratioP2;P2;SDS_P1;SDS_P2;PMS_P1;PMS_P2;Temp;Humidity;BMP_temperature;BMP_pressure;BME280_temperature;BME280_humidity;BME280_pressure;Samples;Min_cycle;Max_cycle;Signal;HPM_P1;HPM_P2
2022/10/25 00:01:54;;;;;;;;;;;;;;;12.37;81.00;98085.78;5068272;28;19924;-60
2022/10/25 00:04:22;;;;;;;;;;;;;;;12.39;80.54;98077.28;5074824;28;19959;-60
2022/10/25 00:06:51;;;;;;;;;;;;;;;12.36;80.27;98080.63;5072772;28;19935;-60
2022/10/25 00:09:25;;;;;;;;;;;;;;;12.38;79.62;98087.38;5070488;28;20354;-60
2022/10/25 00:11:52;;;;;;;;;;;;;;;12.38;80.53;98087.38;5080214;28;19925;-60
2022/10/25 00:14:23;;;;;;;;;;;;;;;12.38;80.57;98081.94;5074782;28;20374;-60
2022/10/25 00:16:51;;;;;;;;;;;;;;;12.31;80.24;98081.59;5059754;28;19955;-60
2022/10/25 00:19:19;;;;;;;;;;;;;;;12.32;80.45;98085.94;5054130;28;20341;-58
2022/10/25 00:21:46;;;;;;;;;;;;;;;12.31;79.80;98087.84;5051189;28;20242;-60
2022/10/25 00:24:16;;;;;;;;;;;;;;;12.26;79.89;98079.03;5054171;28;19933;-60
2022/10/25 00:26:44;;;;;;;;;;;;;;;12.27;80.13;98083.34;5053629;28;20480;-60
2022/10/25 00:29:12;;;;;;;;;;;;;;;12.20;80.65;98080.31;5054142;28;19960;-60
2022/10/25 00:31:44;;;;;;;;;;;;;;;12.20;80.61;98080.31;5048388;28;20017;-59
2022/10/25 00:34:11;;;;;;;;;;;;;;;12.17;80.11;98086.38;5053555;28;19963;-59
2022/10/25 00:36:41;;;;;;;;;;;;;;;12.19;79.66;98092.28;5053610;28;20285;-60
2022/10/25 00:39:09;;;;;;;;;;;;;;;12.21;79.87;98087.34;5069249;28;19925;-60
2022/10/25 00:41:40;;;;;;;;;;;;;;;12.18;79.54;98082.53;5035449;28;20382;-60
2022/10/25 00:44:27;;;;;;;;;;;;;;;12.16;79.97;98090.22;5056250;28;20370;-59
2022/10/25 00:46:55;;;;;;;;;;;;;;;12.16;79.51;98095.66;5063032;28;19931;-60
2022/10/25 00:49:22;;;;;;;;;;;;;;;12.16;79.36;98095.66;5073802;28;19924;-60
2022/10/25 00:51:52;;;;;;;;;;;;;;;12.14;79.11;98098.69;5075624;28;19932;-60
2022/10/25 00:54:20;;;;;;;;;;;;;;;12.01;79.46;98094.97;5053881;28;19948;-61
2022/10/25 00:56:53;;;;;;;;;;;;;;;12.07;79.24;98088.25;5078380;28;20031;-60
2022/10/25 00:59:21;;;;;;;;;;;;;;;12.05;79.61;98093.25;5077993;28;19959;-60
2022/10/25 01:01:49;;;;;;;;;;;;;;;11.99;79.86;98090.97;5062229;28;19928;-60
2022/10/25 01:04:17;;;;;;;;;;;;;;;12.03;79.66;98091.94;5069991;28;20182;-59
2022/10/25 01:09:38;;;;;;;;;;;;;;;12.14;78.46;98093.25;5072291;28;19924;-60
2022/10/25 01:12:07;;;;;;;;;;;;;;;12.07;79.04;98098.34;5071106;28;20250;-60
2022/10/25 01:14:38;;;;;;;;;;;;;;;11.99;80.11;98097.22;5071380;28;20373;-59
2022/10/25 01:17:07;;;;;;;;;;;;;;;12.01;79.75;98092.25;5068950;28;19929;-60
2022/10/25 01:19:43;;;;;;;;;;;;;;;12.02;79.52;98093.84;5088424;28;20002;-60
2022/10/25 01:22:12;;;;;;;;;;;;;;;11.95;79.40;98095.44;5068619;28;20285;-60
2022/10/25 01:24:51;;;;;;;;;;;;;;;12.07;79.29;98092.91;5073379;28;19931;-59
2022/10/25 01:27:36;;;;;;;;;;;;;;;11.97;79.64;98096.72;5069965;28;19932;-59
2022/10/25 01:30:06;;;;;;;;;;;;;;;12.00;79.31;98093.38;5051010;28;19924;-57
2022/10/25 01:33:00;;;;;;;;;;;;;;;12.01;79.41;98089.53;5070918;28;19924;-60
2022/10/25 01:35:29;;;;;;;;;;;;;;;11.95;79.99;98093.53;5071923;28;20309;-59
2022/10/25 01:38:15;;;;;;;;;;;;;;;11.96;80.16;98097.84;5072270;28;19931;-60
2022/10/25 01:40:44;;;;;;;;;;;;;;;11.90;80.09;98090.16;5072170;28;19924;-59
2022/10/25 01:43:14;;;;;;;;;;;;;;;11.95;79.35;98098.97;5080980;28;19990;-60
2022/10/25 01:45:42;;;;;;;;;;;;;;;11.87;79.36;98099.72;5065688;28;19932;-60
2022/10/25 01:48:12;;;;;;;;;;;;;;;11.92;78.88;98096.88;5072415;28;19971;-59
2022/10/25 01:50:43;;;;;;;;;;;;;;;11.91;79.47;98097.19;5072770;28;19928;-60
2022/10/25 01:53:11;;;;;;;;;;;;;;;11.87;79.83;98099.72;5075392;28;19928;-60
2022/10/25 01:55:42;;;;;;;;;;;;;;;11.87;79.37;98104.38;5071740;28;20032;-60
2022/10/25 01:58:11;;;;;;;;;;;;;;;11.83;79.84;98098.78;5073696;28;19928;-59
2022/10/25 02:00:43;;;;;;;;;;;;;;;11.77;79.85;98105.41;5067895;28;19960;-60
2022/10/25 02:03:14;;;;;;;;;;;;;;;11.77;79.69;98099.97;5067942;28;19959;-60
2022/10/25 02:05:47;;;;;;;;;;;;;;;11.75;80.05;98110.38;5063857;28;20293;-60
2022/10/25 02:08:17;;;;;;;;;;;;;;;11.81;79.49;98111.84;5071955;28;19935;-60
2022/10/25 02:10:46;;;;;;;;;;;;;;;11.80;79.63;98110.25;5069797;28;19924;-60
2022/10/25 02:13:16;;;;;;;;;;;;;;;11.81;78.93;98106.41;5071498;28;19931;-59
2022/10/25 02:15:44;;;;;;;;;;;;;;;11.80;79.38;98110.25;5061808;28;19928;-60
2022/10/25 02:18:13;;;;;;;;;;;;;;;11.80;79.37;98108.31;5067960;28;19935;-60
2022/10/25 02:20:40;;;;;;;;;;;;;;;11.78;78.98;98110.56;5052564;28;19944;-60
2022/10/25 02:26:05;;;;;;;;;;;;;;;11.83;79.03;98106.94;5070015;28;19930;-59
2022/10/25 02:28:35;;;;;;;;;;;;;;;11.82;78.77;98101.78;5075300;28;19932;-60
2022/10/25 02:31:02;;;;;;;;;;;;;;;11.77;78.82;98094.53;5049033;28;19951;-59
2022/10/25 02:33:30;;;;;;;;;;;;;;;11.79;78.87;98098.56;5081928;28;19939;-60
2022/10/25 02:36:05;;;;;;;;;;;;;;;11.73;78.98;98099.81;5072001;28;19924;-60
2022/10/25 02:38:34;;;;;;;;;;;;;;;11.73;78.86;98104.47;5069698;28;19932;-60
2022/10/25 02:41:02;;;;;;;;;;;;;;;11.74;78.89;98095.97;5070850;28;19935;-60
2022/10/25 02:43:30;;;;;;;;;;;;;;;11.69;79.01;98100.75;5073224;28;19931;-60
2022/10/25 02:45:58;;;;;;;;;;;;;;;11.71;79.02;98098.50;5063232;28;20328;-60
2022/10/25 02:48:26;;;;;;;;;;;;;;;11.70;78.82;98105.88;5050805;28;19924;-59
2022/10/25 02:51:19;;;;;;;;;;;;;;;11.70;79.03;98111.31;5051763;28;19937;-59
2022/10/25 02:54:12;;;;;;;;;;;;;;;11.62;79.42;98116.75;5049265;28;19931;-63
2022/10/25 02:56:41;;;;;;;;;;;;;;;11.58;79.35;98121.19;5050244;28;20443;-60
2022/10/25 02:59:10;;;;;;;;;;;;;;;11.55;79.80;98120.69;5049828;28;19925;-59
2022/10/25 03:02:03;;;;;;;;;;;;;;;11.55;79.62;98117.97;5051584;28;19924;-60
2022/10/25 03:04:30;;;;;;;;;;;;;;;11.52;79.62;98115.88;5050435;28;19929;-60
2022/10/25 03:06:58;;;;;;;;;;;;;;;11.53;79.86;98119.41;5049497;28;19932;-60
2022/10/25 03:09:26;;;;;;;;;;;;;;;11.55;79.36;98126.13;5050652;28;20301;-59
2022/10/25 03:11:56;;;;;;;;;;;;;;;11.51;79.47;98125.19;5053683;28;19929;-60
2022/10/25 03:14:24;;;;;;;;;;;;;;;11.51;79.60;98127.91;5061452;28;20298;-59
2022/10/25 03:16:52;;;;;;;;;;;;;;;11.51;79.88;98130.63;5059704;28;19936;-59
2022/10/25 03:19:19;;;;;;;;;;;;;;;11.47;79.90;98128.81;5053002;28;20424;-60
2022/10/25 03:21:47;;;;;;;;;;;;;;;11.49;79.38;98130.09;5069577;28;19947;-60
2022/10/25 03:24:15;;;;;;;;;;;;;;;11.57;79.27;98123.13;5052240;28;20745;-59
2022/10/25 03:26:43;;;;;;;;;;;;;;;11.57;78.52;98123.13;5070922;28;19928;-59
2022/10/25 03:29:12;;;;;;;;;;;;;;;11.51;79.01;98125.19;5076194;28;19932;-60
2022/10/25 03:31:40;;;;;;;;;;;;;;;11.51;79.46;98129.81;5075724;28;20392;-60
2022/10/25 03:34:08;;;;;;;;;;;;;;;11.53;79.09;98128.38;5070985;28;19939;-59
2022/10/25 03:36:35;;;;;;;;;;;;;;;11.48;79.72;98135.88;5071110;28;19928;-59
2022/10/25 03:39:04;;;;;;;;;;;;;;;11.55;79.49;98136.22;5069161;28;19924;-60
2022/10/25 03:41:32;;;;;;;;;;;;;;;11.48;79.85;98136.66;5070911;28;19928;-59
2022/10/25 03:44:00;;;;;;;;;;;;;;;11.51;79.52;98136.06;5072886;28;19925;-59
2022/10/25 03:46:29;;;;;;;;;;;;;;;11.46;80.04;98144.34;5065157;28;19928;-59
2022/10/25 03:48:57;;;;;;;;;;;;;;;11.49;80.51;98137.47;5070806;28;19947;-60
2022/10/25 03:51:25;;;;;;;;;;;;;;;11.39;80.09;98160.28;5052183;28;20374;-60
2022/10/25 03:53:53;;;;;;;;;;;;;;;11.40;80.21;98153.75;5066624;28;19924;-60
2022/10/25 03:56:21;;;;;;;;;;;;;;;11.46;80.05;98157.16;5068290;28;19925;-59
2022/10/25 03:58:49;;;;;;;;;;;;;;;11.44;80.07;98151.19;5070883;28;19931;-59
2022/10/25 04:01:16;;;;;;;;;;;;;;;11.41;80.18;98152.63;5064942;28;19925;-59
2022/10/25 04:03:46;;;;;;;;;;;;;;;11.41;80.17;98149.13;5067096;28;19931;-60
2022/10/25 04:06:14;;;;;;;;;;;;;;;11.37;80.35;98151.66;5068675;28;20353;-60
2022/10/25 04:08:42;;;;;;;;;;;;;;;11.41;80.58;98158.06;5069296;28;20302;-60
2022/10/25 04:11:09;;;;;;;;;;;;;;;11.39;80.91;98148.59;5047522;28;19936;-60
2022/10/25 04:13:37;;;;;;;;;;;;;;;11.41;80.86;98154.56;5072495;28;20658;-60
2022/10/25 04:16:05;;;;;;;;;;;;;;;11.38;80.82;98155.16;5064826;28;19925;-60
2022/10/25 04:18:34;;;;;;;;;;;;;;;11.41;81.01;98158.06;5070191;28;19960;-60
2022/10/25 04:21:03;;;;;;;;;;;;;;;11.28;81.29;98159.72;5070195;28;19947;-60
2022/10/25 04:23:31;;;;;;;;;;;;;;;11.36;80.91;98154.69;5069868;28;19924;-60
2022/10/25 04:25:59;;;;;;;;;;;;;;;11.37;80.96;98151.66;5047601;28;19925;-59
2022/10/25 04:28:52;;;;;;;;;;;;;;;11.33;81.33;98152.56;5072915;28;19960;-60
2022/10/25 04:31:20;;;;;;;;;;;;;;;11.31;81.21;98157.53;5083169;28;19960;-60
2022/10/25 04:33:48;;;;;;;;;;;;;;;11.24;81.38;98158.78;5073493;28;20007;-60
2022/10/25 04:36:20;;;;;;;;;;;;;;;11.24;81.32;98163.41;5070955;28;20294;-60
2022/10/25 04:41:41;;;;;;;;;;;;;;;11.16;81.30;98166.84;5070262;28;19986;-65
2022/10/25 04:44:08;;;;;;;;;;;;;;;11.15;81.47;98160.63;5074811;28;19925;-60
2022/10/25 04:47:00;;;;;;;;;;;;;;;11.16;81.42;98167.66;5067613;28;19931;-61
2022/10/25 04:49:28;;;;;;;;;;;;;;;11.19;81.30;98160.81;5070724;28;19955;-60
2022/10/25 04:51:57;;;;;;;;;;;;;;;11.06;81.96;98167.09;5073469;28;19935;-60
2022/10/25 04:54:25;;;;;;;;;;;;;;;11.12;81.98;98174.00;5072214;28;19924;-60
2022/10/25 04:56:56;;;;;;;;;;;;;;;11.14;81.98;98174.53;5073567;28;20015;-60
2022/10/25 04:59:24;;;;;;;;;;;;;;;11.12;82.04;98172.09;5069718;28;19932;-60
2022/10/25 05:01:52;;;;;;;;;;;;;;;11.16;81.78;98175.81;5064937;28;19932;-60
2022/10/25 05:04:21;;;;;;;;;;;;;;;11.16;81.67;98166.84;5072386;28;20353;-60
2022/10/25 05:09:43;;;;;;;;;;;;;;;11.07;81.84;98174.13;5072158;28;20696;-61
2022/10/25 05:12:14;;;;;;;;;;;;;;;11.05;81.89;98165.50;5075907;28;19929;-60
2022/10/25 05:14:41;;;;;;;;;;;;;;;11.00;81.97;98177.28;5072330;28;19956;-60
2022/10/25 05:17:09;;;;;;;;;;;;;;;11.04;81.80;98183.72;5051914;28;20400;-59
2022/10/25 05:19:36;;;;;;;;;;;;;;;11.04;81.91;98183.72;5033525;28;19925;-60
2022/10/25 05:22:04;;;;;;;;;;;;;;;11.05;81.56;98192.69;5051301;28;19932;-60
2022/10/25 05:24:32;;;;;;;;;;;;;;;11.02;81.70;98184.03;5048852;28;19932;-61
2022/10/25 05:27:02;;;;;;;;;;;;;;;10.99;81.22;98187.34;5052550;28;20374;-60
2022/10/25 05:29:29;;;;;;;;;;;;;;;10.96;81.49;98187.97;5051082;28;19933;-60
2022/10/25 05:31:59;;;;;;;;;;;;;;;10.98;81.97;98193.91;5056629;28;19931;-60
2022/10/25 05:34:28;;;;;;;;;;;;;;;11.01;82.38;98196.00;5071936;28;19924;-61
2022/10/25 05:37:46;;;;;;;;;;;;;;;11.04;82.10;98196.50;5071237;28;19924;-61
2022/10/25 05:40:14;;;;;;;;;;;;;;;11.04;82.06;98201.94;5069988;28;19925;-61
2022/10/25 05:42:43;;;;;;;;;;;;;;;11.05;81.97;98211.72;5081984;28;20023;-61
2022/10/25 05:45:11;;;;;;;;;;;;;;;11.05;82.06;98215.22;5067923;28;19928;-61
2022/10/25 05:47:38;;;;;;;;;;;;;;;11.13;82.10;98210.97;5054062;28;19925;-60
2022/10/25 05:50:06;;;;;;;;;;;;;;;11.20;82.35;98211.38;5070874;28;19935;-61
2022/10/25 05:52:36;;;;;;;;;;;;;;;11.25;81.91;98203.88;5070578;28;19925;-61
2022/10/25 05:55:05;;;;;;;;;;;;;;;11.24;81.57;98220.53;5073079;28;19985;-60
2022/10/25 05:57:33;;;;;;;;;;;;;;;11.25;81.90;98222.94;5074700;28;19924;-60
2022/10/25 06:03:00;;;;;;;;;;;;;;;11.26;82.27;98226.44;5065906;28;19971;-60
2022/10/25 06:05:28;;;;;;;;;;;;;;;11.27;82.15;98225.31;5051121;28;20289;-61
2022/10/25 06:07:57;;;;;;;;;;;;;;;11.29;81.85;98228.53;5065741;28;19924;-61
2022/10/25 06:10:24;;;;;;;;;;;;;;;11.27;82.12;98222.59;5071560;28;19928;-60
2022/10/25 06:12:53;;;;;;;;;;;;;;;11.34;82.06;98233.84;5083780;28;19925;-60
2022/10/25 06:15:22;;;;;;;;;;;;;;;11.34;81.96;98233.84;5068254;28;19932;-61
2022/10/25 06:17:50;;;;;;;;;;;;;;;11.38;82.27;98243.00;5071297;28;19928;-61
2022/10/25 06:20:24;;;;;;;;;;;;;;;11.39;82.15;98241.09;5072312;28;20373;-61
2022/10/25 06:22:52;;;;;;;;;;;;;;;11.43;81.84;98244.81;5041206;28;19931;-60
2022/10/25 06:25:20;;;;;;;;;;;;;;;11.46;81.93;98250.44;5069906;28;19924;-61
2022/10/25 06:30:45;;;;;;;;;;;;;;;11.52;81.16;98251.94;5063188;28;19932;-60
2022/10/25 06:33:13;;;;;;;;;;;;;;;11.55;81.59;98245.06;5071535;28;19924;-60
2022/10/25 06:35:40;;;;;;;;;;;;;;;11.59;81.78;98254.22;5070099;28;19931;-61
2022/10/25 06:38:08;;;;;;;;;;;;;;;11.57;82.30;98261.91;5071279;28;19994;-61
2022/10/25 06:48:37;;;;;;;;;;;;;;;11.53;81.73;98258.97;5070277;28;19924;-59
2022/10/25 06:51:05;;;;;;;;;;;;;;;11.58;81.69;98271.66;5065732;28;20551;-60
2022/10/25 06:53:33;;;;;;;;;;;;;;;11.64;81.90;98280.50;5069997;28;19932;-61
2022/10/25 06:56:01;;;;;;;;;;;;;;;11.70;81.77;98280.06;5071202;28;19931;-60
2022/10/25 06:58:31;;;;;;;;;;;;;;;11.74;81.25;98272.09;5070807;28;19924;-59
2022/10/25 07:01:02;;;;;;;;;;;;;;;11.72;81.35;98277.88;5066672;28;19924;-61
2022/10/25 07:03:35;;;;;;;;;;;;;;;11.74;81.47;98274.81;5049833;28;19931;-61
2022/10/25 07:06:05;;;;;;;;;;;;;;;11.74;81.71;98277.53;5067913;28;19935;-60
2022/10/25 07:08:32;;;;;;;;;;;;;;;11.76;81.40;98278.03;5065728;28;19925;-60
2022/10/25 07:11:00;;;;;;;;;;;;;;;11.85;81.70;98283.56;5069714;28;19932;-61
2022/10/25 07:13:29;;;;;;;;;;;;;;;11.90;81.47;98288.88;5069262;28;20313;-60
2022/10/25 07:16:01;;;;;;;;;;;;;;;11.99;81.82;98287.84;5056716;28;20437;-61
2022/10/25 07:18:29;;;;;;;;;;;;;;;12.01;81.62;98282.88;5043785;28;20016;-60
2022/10/25 07:20:58;;;;;;;;;;;;;;;12.12;81.39;98275.25;5051464;28;20028;-61
2022/10/25 07:23:27;;;;;;;;;;;;;;;12.13;81.30;98289.66;5037300;28;19928;-61
2022/10/25 07:25:56;;;;;;;;;;;;;;;12.17;80.96;98293.38;5054051;28;19928;-60
2022/10/25 07:28:26;;;;;;;;;;;;;;;12.19;81.24;98291.94;5053343;28;19929;-60
2022/10/25 07:30:54;;;;;;;;;;;;;;;12.19;80.14;98293.84;5053386;28;19928;-60
2022/10/25 07:33:22;;;;;;;;;;;;;;;12.38;80.34;98293.66;5065396;28;19925;-60
2022/10/25 07:35:50;;;;;;;;;;;;;;;12.48;79.63;98290.66;5071384;28;19924;-61
2022/10/25 07:38:34;;;;;;;;;;;;;;;12.60;78.98;98301.75;5070335;28;19925;-60
2022/10/25 07:41:02;;;;;;;;;;;;;;;12.64;78.61;98296.47;5074013;28;20378;-60
2022/10/25 07:43:30;;;;;;;;;;;;;;;12.64;79.37;98285.56;5066846;28;20023;-60
2022/10/25 07:45:58;;;;;;;;;;;;;;;12.63;79.38;98290.22;5062592;28;19931;-60
2022/10/25 07:48:26;;;;;;;;;;;;;;;12.65;79.38;98300.81;5064215;28;19932;-60
2022/10/25 07:50:54;;;;;;;;;;;;;;;12.63;79.35;98300.34;5069647;28;19929;-60
2022/10/25 07:53:22;;;;;;;;;;;;;;;12.63;79.52;98308.50;5055735;28;19974;-59
2022/10/25 07:55:52;;;;;;;;;;;;;;;12.65;79.39;98314.44;5069862;28;20435;-60
2022/10/25 07:58:20;;;;;;;;;;;;;;;12.68;79.40;98301.00;5050981;28;19932;-59
2022/10/25 08:07:35;;;;;;;;;;;;;;;12.79;78.69;98304.22;5246060;23;19911;-77
2022/10/25 08:10:03;;;;;;;;;;;;;;;12.86;78.41;98304.56;4912227;29;19931;-74
2022/10/25 08:12:34;;;;;;;;;;;;;;;12.91;78.56;98307.16;4945210;29;19971;-74
2022/10/25 08:15:02;;;;;;;;;;;;;;;12.95;78.50;98297.22;4922022;29;20381;-76
2022/10/25 08:17:30;;;;;;;;;;;;;;;13.00;78.33;98296.28;4936426;23;20455;-59
2022/10/25 08:19:59;;;;;;;;;;;;;;;13.09;78.24;98306.06;4898771;29;19931;-59
2022/10/25 08:22:26;;;;;;;;;;;;;;;13.14;77.77;98301.56;4905141;29;19994;-58
2022/10/25 08:24:54;;;;;;;;;;;;;;;13.17;77.67;98309.94;4898364;29;19938;-58
2022/10/25 08:27:22;;;;;;;;;;;;;;;13.26;77.26;98304.50;4883897;29;19971;-58
2022/10/25 08:29:51;;;;;;;;;;;;;;;13.30;77.75;98308.22;4886585;29;20389;-59
2022/10/25 08:32:19;;;;;;;;;;;;;;;13.38;77.29;98310.16;4879589;29;19934;-59
2022/10/25 08:34:47;;;;;;;;;;;;;;;13.43;77.81;98320.94;4881517;29;19975;-59
2022/10/25 08:37:14;;;;;;;;;;;;;;;13.55;76.13;98321.09;4884812;29;19932;-59
2022/10/25 08:39:43;;;;;;;;;;;;;;;13.66;75.36;98313.38;4893463;29;20417;-59
2022/10/25 08:42:13;;;;;;;;;;;;;;;13.73;74.87;98327.34;4894360;29;20022;-59
2022/10/25 08:44:43;;;;;;;;;;;;;;;13.80;75.14;98321.41;4894814;29;19928;-59
2022/10/25 08:47:13;;;;;;;;;;;;;;;13.86;74.36;98314.66;4891493;29;20388;-59
2022/10/25 08:49:46;;;;;;;;;;;;;;;13.89;74.12;98314.81;4902912;29;20028;-58
2022/10/25 08:52:18;;;;;;;;;;;;;;;13.99;73.84;98315.59;4886512;29;19931;-62
2022/10/25 08:54:46;;;;;;;;;;;;;;;13.96;74.15;98317.06;4891957;29;19935;-59
2022/10/25 08:57:15;;;;;;;;;;;;;;;14.04;74.40;98327.16;4894431;29;19927;-59
2022/10/25 08:59:44;;;;;;;;;;;;;;;14.08;73.93;98316.41;4891559;29;19938;-59
2022/10/25 09:02:17;;;;;;;;;;;;;;;14.11;73.77;98323.94;4886725;29;20298;-60
2022/10/25 09:04:46;;;;;;;;;;;;;;;14.19;73.34;98322.31;4895962;29;19928;-60
2022/10/25 09:07:20;;;;;;;;;;;;;;;14.19;72.90;98319.59;4912745;29;20022;-59
2022/10/25 09:09:48;;;;;;;;;;;;;;;14.15;73.31;98325.69;4896875;29;19958;-60
2022/10/25 09:12:19;;;;;;;;;;;;;;;14.20;72.78;98323.91;4896474;29;19934;-59
2022/10/25 09:14:48;;;;;;;;;;;;;;;14.25;73.11;98321.03;4896259;29;19931;-59
2022/10/25 09:17:19;;;;;;;;;;;;;;;14.28;73.38;98315.72;4881920;29;19950;-59
2022/10/25 09:19:50;;;;;;;;;;;;;;;14.36;73.19;98316.81;4896524;29;19934;-59
2022/10/25 09:22:19;;;;;;;;;;;;;;;14.48;72.00;98322.41;4894680;29;19963;-60
2022/10/25 09:24:47;;;;;;;;;;;;;;;14.49;72.31;98320.50;4893639;29;20439;-60
2022/10/25 09:27:20;;;;;;;;;;;;;;;14.49;72.75;98326.78;4888194;29;19927;-58
2022/10/25 09:29:50;;;;;;;;;;;;;;;14.50;71.83;98322.91;4911327;29;19979;-59
2022/10/25 09:32:22;;;;;;;;;;;;;;;14.51;72.21;98319.03;4894562;29;19927;-60
2022/10/25 09:34:50;;;;;;;;;;;;;;;14.62;71.15;98325.75;4898071;29;20026;-59
2022/10/25 09:37:18;;;;;;;;;;;;;;;14.58;71.63;98324.81;4895980;29;20303;-59
2022/10/25 09:39:47;;;;;;;;;;;;;;;14.65;71.76;98325.13;4900477;29;19963;-60
2022/10/25 09:42:17;;;;;;;;;;;;;;;14.78;71.48;98333.44;4897894;29;19931;-59
2022/10/25 09:44:47;;;;;;;;;;;;;;;14.92;70.68;98325.81;4899412;29;19928;-61
2022/10/25 09:47:18;;;;;;;;;;;;;;;14.89;70.85;98334.66;4891895;29;19984;-60
2022/10/25 09:49:49;;;;;;;;;;;;;;;15.07;69.93;98336.16;4900889;29;20373;-59
2022/10/25 09:52:19;;;;;;;;;;;;;;;15.10;69.77;98338.25;4901595;29;19931;-59
2022/10/25 09:54:49;;;;;;;;;;;;;;;15.17;69.70;98334.97;4893768;29;19928;-60
2022/10/25 09:57:18;;;;;;;;;;;;;;;15.14;69.21;98338.41;4903655;29;19927;-59
2022/10/25 09:59:48;;;;;;;;;;;;;;;15.12;69.76;98341.44;4896438;29;19928;-60
2022/10/25 10:02:18;;;;;;;;;;;;;;;15.12;69.92;98338.72;4906617;29;20243;-59
2022/10/25 10:04:48;;;;;;;;;;;;;;;15.12;69.47;98343.38;4892699;29;20034;-60
2022/10/25 10:07:17;;;;;;;;;;;;;;;15.16;68.97;98339.66;4895986;29;20300;-59
2022/10/25 10:09:45;;;;;;;;;;;;;;;15.30;68.42;98338.63;4895285;29;20391;-60
2022/10/25 10:12:16;;;;;;;;;;;;;;;15.23;69.40;98333.66;4893607;29;20402;-59
2022/10/25 10:14:45;;;;;;;;;;;;;;;15.17;69.25;98335.78;4898082;29;19927;-59
2022/10/25 10:17:14;;;;;;;;;;;;;;;15.16;69.47;98331.44;4905702;29;20504;-59
2022/10/25 10:19:42;;;;;;;;;;;;;;;15.16;70.02;98328.72;4911611;29;20018;-59
2022/10/25 10:22:13;;;;;;;;;;;;;;;15.09;69.34;98333.91;4896808;29;20377;-59
2022/10/25 10:24:41;;;;;;;;;;;;;;;15.01;69.54;98333.94;4893476;29;19927;-59
2022/10/25 10:27:10;;;;;;;;;;;;;;;14.94;70.46;98337.22;4898920;29;19928;-59
2022/10/25 10:29:38;;;;;;;;;;;;;;;14.91;69.86;98332.38;4895247;29;19927;-59
2022/10/25 10:32:07;;;;;;;;;;;;;;;14.92;69.51;98325.81;4884055;29;20894;-59
2022/10/25 10:34:37;;;;;;;;;;;;;;;14.88;69.54;98331.13;4896248;29;19967;-61
2022/10/25 10:37:07;;;;;;;;;;;;;;;15.01;69.75;98320.28;4895615;29;19927;-64
2022/10/25 10:39:38;;;;;;;;;;;;;;;15.04;69.58;98328.63;4897029;29;19975;-59
2022/10/25 10:42:13;;;;;;;;;;;;;;;15.09;69.70;98322.16;4892545;29;19961;-60
2022/10/25 10:44:42;;;;;;;;;;;;;;;15.19;68.33;98321.78;4894295;29;19935;-59
2022/10/25 10:47:15;;;;;;;;;;;;;;;15.35;68.36;98322.00;4887442;29;19980;-59
2022/10/25 10:49:43;;;;;;;;;;;;;;;15.50;67.93;98324.16;4891505;29;20347;-59
2022/10/25 10:52:24;;;;;;;;;;;;;;;15.62;67.55;98312.47;4891065;29;19938;-59
2022/10/25 10:54:53;;;;;;;;;;;;;;;15.70;67.39;98315.16;4895151;29;19939;-59
2022/10/25 10:57:24;;;;;;;;;;;;;;;15.71;67.18;98316.78;4893225;29;19981;-59
2022/10/25 10:59:53;;;;;;;;;;;;;;;15.70;66.27;98315.16;4888406;29;19944;-59
2022/10/25 11:02:25;;;;;;;;;;;;;;;15.74;65.78;98320.78;4886699;29;19935;-58
2022/10/25 11:04:54;;;;;;;;;;;;;;;15.78;65.24;98327.19;4891921;29;19931;-60
2022/10/25 11:07:41;;;;;;;;;;;;;;;15.91;65.45;98328.84;4894920;29;19938;-60
2022/10/25 11:10:22;;;;;;;;;;;;;;;16.05;63.89;98325.81;4896228;29;20619;-59
2022/10/25 11:13:05;;;;;;;;;;;;;;;16.14;63.97;98337.50;4896163;29;19977;-59
2022/10/25 11:15:35;;;;;;;;;;;;;;;16.07;64.64;98326.28;4888009;29;20034;-60
2022/10/25 11:18:03;;;;;;;;;;;;;;;16.08;64.57;98321.59;4899104;29;20027;-59
2022/10/25 11:20:33;;;;;;;;;;;;;;;16.05;64.05;98316.78;4895569;29;19942;-60
2022/10/25 11:23:01;;;;;;;;;;;;;;;16.03;64.17;98317.13;4893154;29;19928;-60
2022/10/25 11:25:36;;;;;;;;;;;;;;;16.05;63.20;98319.53;4895433;29;19931;-59
2022/10/25 11:28:12;;;;;;;;;;;;;;;15.97;64.32;98315.72;4898886;29;19927;-60
2022/10/25 11:30:40;;;;;;;;;;;;;;;16.00;64.87;98317.81;4891718;29;19932;-59
2022/10/25 11:33:20;;;;;;;;;;;;;;;16.15;63.63;98310.91;4882821;29;19936;-60
2022/10/25 11:35:51;;;;;;;;;;;;;;;16.34;63.81;98315.84;4904842;29;19927;-60
2022/10/25 11:38:20;;;;;;;;;;;;;;;16.43;63.12;98313.81;4894403;29;19927;-60
2022/10/25 11:40:54;;;;;;;;;;;;;;;16.54;62.78;98306.75;4890043;29;20348;-60
2022/10/25 11:43:27;;;;;;;;;;;;;;;16.58;62.47;98310.41;4891070;29;19928;-60
2022/10/25 11:45:56;;;;;;;;;;;;;;;16.46;61.05;98316.69;4891287;29;19927;-60
2022/10/25 11:48:29;;;;;;;;;;;;;;;16.41;60.40;98318.84;4891886;29;19928;-60
2022/10/25 11:50:58;;;;;;;;;;;;;;;16.29;60.64;98313.31;4889245;29;19927;-60
2022/10/25 11:53:28;;;;;;;;;;;;;;;16.35;60.56;98306.47;4885040;29;20113;-60
2022/10/25 11:55:59;;;;;;;;;;;;;;;16.44;59.93;98304.44;4887851;29;19928;-60
2022/10/25 11:58:30;;;;;;;;;;;;;;;16.57;59.74;98305.28;4889506;29;19935;-61
2022/10/25 12:01:02;;;;;;;;;;;;;;;16.55;60.43;98308.34;4887374;29;19928;-59
2022/10/25 12:03:34;;;;;;;;;;;;;;;16.56;59.71;98309.94;4890583;29;19927;-59
2022/10/25 12:06:06;;;;;;;;;;;;;;;16.57;59.22;98303.34;4895518;29;20026;-59
2022/10/25 12:08:37;;;;;;;;;;;;;;;16.50;59.30;98303.88;4894782;29;19934;-59
2022/10/25 12:11:10;;;;;;;;;;;;;;;16.62;59.40;98305.84;4895624;29;20384;-59
2022/10/25 12:13:41;;;;;;;;;;;;;;;16.65;58.67;98304.34;4907790;29;20026;-59
2022/10/25 12:16:10;;;;;;;;;;;;;;;16.69;57.59;98297.84;4891259;29;19927;-59
2022/10/25 12:18:39;;;;;;;;;;;;;;;16.75;57.92;98304.75;4897149;29;19932;-60
2022/10/25 12:21:07;;;;;;;;;;;;;;;16.79;57.86;98304.06;4894256;29;19928;-59
2022/10/25 12:23:36;;;;;;;;;;;;;;;16.89;57.39;98298.94;4910086;29;20376;-59
2022/10/25 12:26:06;;;;;;;;;;;;;;;16.95;58.08;98294.00;4896010;29;19927;-59
2022/10/25 12:28:35;;;;;;;;;;;;;;;16.83;58.02;98305.78;4909307;29;19934;-59
2022/10/25 12:31:07;;;;;;;;;;;;;;;16.81;58.55;98307.25;4901523;29;20018;-59
2022/10/25 12:33:36;;;;;;;;;;;;;;;16.87;58.25;98303.94;4903439;29;19928;-59
2022/10/25 12:36:05;;;;;;;;;;;;;;;16.86;58.20;98309.78;4892523;29;19927;-59
2022/10/25 12:38:34;;;;;;;;;;;;;;;16.75;58.49;98312.97;4892037;29;20022;-59
2022/10/25 12:41:04;;;;;;;;;;;;;;;16.56;58.93;98307.19;4892801;29;19932;-59
2022/10/25 12:43:33;;;;;;;;;;;;;;;16.44;59.20;98304.44;4894490;29;19979;-58
2022/10/25 12:46:10;;;;;;;;;;;;;;;16.31;59.43;98311.84;4887297;29;19934;-61
2022/10/25 12:48:44;;;;;;;;;;;;;;;16.18;59.30;98313.75;4896446;29;19979;-59
2022/10/25 12:51:16;;;;;;;;;;;;;;;16.09;59.72;98306.78;4900486;29;19988;-59
2022/10/25 12:54:06;;;;;;;;;;;;;;;16.19;60.30;98309.88;4899089;29;20022;-59
2022/10/25 12:56:44;;;;;;;;;;;;;;;16.33;59.09;98306.03;4892131;29;19932;-59
2022/10/25 12:59:16;;;;;;;;;;;;;;;16.39;58.03;98299.97;4895006;29;19938;-59
2022/10/25 13:01:50;;;;;;;;;;;;;;;16.44;57.65;98304.44;4889915;29;20399;-59
2022/10/25 13:04:22;;;;;;;;;;;;;;;16.48;58.39;98300.69;4887570;29;19978;-60
2022/10/25 13:06:52;;;;;;;;;;;;;;;16.47;58.96;98301.03;4892943;29;19932;-58
2022/10/25 13:09:21;;;;;;;;;;;;;;;16.50;58.61;98297.59;4897608;29;19937;-59
2022/10/25 13:11:56;;;;;;;;;;;;;;;16.58;58.58;98295.91;4902716;29;19934;-60
2022/10/25 13:14:26;;;;;;;;;;;;;;;16.61;57.69;98293.25;4898440;29;19927;-59
2022/10/25 13:17:09;;;;;;;;;;;;;;;16.71;57.16;98292.03;4896228;29;19931;-59
2022/10/25 13:19:38;;;;;;;;;;;;;;;16.66;57.60;98290.28;4897555;29;19927;-59
2022/10/25 13:22:30;;;;;;;;;;;;;;;16.64;58.10;98292.59;4894979;29;19927;-59
2022/10/25 13:25:02;;;;;;;;;;;;;;;16.58;58.23;98293.97;4897720;29;20384;-60
2022/10/25 13:27:32;;;;;;;;;;;;;;;16.63;57.20;98284.72;4898054;29;20448;-59
2022/10/25 13:30:02;;;;;;;;;;;;;;;16.49;58.19;98285.03;4898024;29;19928;-60
2022/10/25 13:32:31;;;;;;;;;;;;;;;16.49;57.94;98288.56;4894381;29;19974;-59
2022/10/25 13:35:42;;;;;;;;;;;;;;;16.44;58.29;98286.03;4894810;29;20317;-58
2022/10/25 13:38:12;;;;;;;;;;;;;;;16.41;58.37;98289.47;4894209;29;20508;-59